sensor_id;sensor_type;location;lat;lon;timestamp;pressure;altitude;pressure_sealevel;temperature;humidity
56052;BME280;41919;42.648;23.384;2023-04-26T00:01:12;93648.31;;;10.27;100.00
56052;BME280;41919;42.648;23.384;2023-04-26T00:03:39;93655.78;;;10.23;100.00
56052;BME280;41919;42.648;23.384;2023-04-26T00:06:05;93589.19;;;9.60;100.00
56052;BME280;41919;42.648;23.384;2023-04-26T00:08:36;93566.63;;;9.35;100.00
56052;BME280;41919;42.648;23.384;2023-04-26T00:11:01;93577.75;;;9.12;100.00
56052;BME280;41919;42.648;23.384;2023-04-26T00:13:27;93590.47;;;8.83;100.00
56052;BME280;41919;42.648;23.384;2023-04-26T00:15:52;93639.22;;;9.01;100.00
56052;BME280;41919;42.648;23.384;2023-04-26T00:18:18;93637.25;;;8.78;100.00
56052;BME280;41919;42.648;23.384;2023-04-26T00:20:43;93599.13;;;8.59;100.00
56052;BME280;41919;42.648;23.384;2023-04-26T00:23:08;93626.50;;;8.68;100.00
56052;BME280;41919;42.648;23.384;2023-04-26T00:25:35;93579.91;;;8.35;100.00
56052;BME280;41919;42.648;23.384;2023-04-26T00:28:01;93554.41;;;8.18;100.00
56052;BME280;41919;42.648;23.384;2023-04-26T00:30:26;93635.50;;;8.47;100.00
56052;BME280;41919;42.648;23.384;2023-04-26T00:32:52;93573.09;;;8.09;100.00
56052;BME280;41919;42.648;23.384;2023-04-26T00:35:18;93628.31;;;8.42;100.00
56052;BME280;41919;42.648;23.384;2023-04-26T00:37:43;93614.22;;;8.25;100.00
56052;BME280;41919;42.648;23.384;2023-04-26T00:40:09;93609.81;;;8.25;100.00
56052;BME280;41919;42.648;23.384;2023-04-26T00:42:36;93617.34;;;8.34;100.00
56052;BME280;41919;42.648;23.384;2023-04-26T00:45:01;93546.31;;;8.01;100.00
56052;BME280;41919;42.648;23.384;2023-04-26T00:47:28;93597.09;;;8.36;100.00
56052;BME280;41919;42.648;23.384;2023-04-26T00:49:55;93610.00;;;8.56;100.00
56052;BME280;41919;42.648;23.384;2023-04-26T00:52:21;93546.44;;;8.38;100.00
56052;BME280;41919;42.648;23.384;2023-04-26T00:54:50;93615.19;;;8.99;100.00
56052;BME280;41919;42.648;23.384;2023-04-26T00:57:16;93532.22;;;8.59;100.00
56052;BME280;41919;42.648;23.384;2023-04-26T00:59:41;93605.41;;;9.13;100.00
56052;BME280;41919;42.648;23.384;2023-04-26T01:02:07;93605.91;;;9.03;100.00
56052;BME280;41919;42.648;23.384;2023-04-26T01:04:33;93596.22;;;8.92;100.00
56052;BME280;41919;42.648;23.384;2023-04-26T01:07:02;93579.84;;;8.85;100.00
56052;BME280;41919;42.648;23.384;2023-04-26T01:09:30;93578.97;;;8.91;100.00
56052;BME280;41919;42.648;23.384;2023-04-26T01:11:56;93570.38;;;8.91;100.00
56052;BME280;41919;42.648;23.384;2023-04-26T01:14:23;93551.34;;;8.90;100.00
56052;BME280;41919;42.648;23.384;2023-04-26T01:16:49;93588.63;;;9.09;100.00
56052;BME280;41919;42.648;23.384;2023-04-26T01:19:15;93570.00;;;9.06;100.00
56052;BME280;41919;42.648;23.384;2023-04-26T01:21:41;93621.81;;;9.51;100.00
56052;BME280;41919;42.648;23.384;2023-04-26T01:24:11;93538.75;;;9.06;100.00
56052;BME280;41919;42.648;23.384;2023-04-26T01:26:40;93545.81;;;9.17;100.00
56052;BME280;41919;42.648;23.384;2023-04-26T01:29:16;93567.53;;;9.29;100.00
56052;BME280;41919;42.648;23.384;2023-04-26T01:31:42;93525.25;;;9.09;100.00
56052;BME280;41919;42.648;23.384;2023-04-26T01:34:07;93529.31;;;9.05;100.00
56052;BME280;41919;42.648;23.384;2023-04-26T01:36:33;93585.91;;;9.34;100.00
56052;BME280;41919;42.648;23.384;2023-04-26T01:38:58;93599.84;;;9.28;100.00
56052;BME280;41919;42.648;23.384;2023-04-26T01:41:24;93609.38;;;9.34;100.00
56052;BME280;41919;42.648;23.384;2023-04-26T01:43:49;93552.34;;;8.71;100.00
56052;BME280;41919;42.648;23.384;2023-04-26T01:46:15;93576.06;;;8.62;100.00
56052;BME280;41919;42.648;23.384;2023-04-26T01:48:40;93613.56;;;8.61;100.00
56052;BME280;41919;42.648;23.384;2023-04-26T01:51:06;93553.22;;;8.14;100.00
56052;BME280;41919;42.648;23.384;2023-04-26T01:53:31;93621.78;;;8.58;100.00
56052;BME280;41919;42.648;23.384;2023-04-26T01:56:00;93624.00;;;8.55;100.00
56052;BME280;41919;42.648;23.384;2023-04-26T01:58:26;93563.25;;;8.36;100.00
56052;BME280;41919;42.648;23.384;2023-04-26T02:00:51;93531.44;;;8.34;100.00
56052;BME280;41919;42.648;23.384;2023-04-26T02:03:17;93602.44;;;8.91;100.00
56052;BME280;41919;42.648;23.384;2023-04-26T02:05:42;93557.47;;;8.59;100.00
56052;BME280;41919;42.648;23.384;2023-04-26T02:08:08;93550.47;;;8.59;100.00
56052;BME280;41919;42.648;23.384;2023-04-26T02:10:33;93603.53;;;9.02;100.00
56052;BME280;41919;42.648;23.384;2023-04-26T02:12:58;93603.81;;;9.12;100.00
56052;BME280;41919;42.648;23.384;2023-04-26T02:15:24;93602.59;;;9.15;100.00
56052;BME280;41919;42.648;23.384;2023-04-26T02:17:49;93532.88;;;8.73;100.00
56052;BME280;41919;42.648;23.384;2023-04-26T02:20:15;93584.84;;;9.23;100.00
56052;BME280;41919;42.648;23.384;2023-04-26T02:22:40;93554.22;;;9.00;100.00
56052;BME280;41919;42.648;23.384;2023-04-26T02:25:06;93581.06;;;9.19;100.00
56052;BME280;41919;42.648;23.384;2023-04-26T02:27:32;93599.59;;;9.30;100.00
56052;BME280;41919;42.648;23.384;2023-04-26T02:29:58;93603.22;;;9.29;100.00
56052;BME280;41919;42.648;23.384;2023-04-26T02:32:23;93588.81;;;8.89;100.00
56052;BME280;41919;42.648;23.384;2023-04-26T02:34:49;93614.22;;;8.75;100.00
56052;BME280;41919;42.648;23.384;2023-04-26T02:37:14;93535.69;;;8.03;100.00
56052;BME280;41919;42.648;23.384;2023-04-26T02:39:40;93565.19;;;7.97;100.00
56052;BME280;41919;42.648;23.384;2023-04-26T02:42:09;93594.13;;;8.07;100.00
56052;BME280;41919;42.648;23.384;2023-04-26T02:44:35;93588.41;;;8.23;100.00
56052;BME280;41919;42.648;23.384;2023-04-26T02:47:00;93549.66;;;8.09;100.00
56052;BME280;41919;42.648;23.384;2023-04-26T02:49:26;93600.28;;;8.38;100.00
56052;BME280;41919;42.648;23.384;2023-04-26T02:51:51;93505.97;;;7.35;100.00
56052;BME280;41919;42.648;23.384;2023-04-26T02:54:17;93589.41;;;7.59;100.00
56052;BME280;41919;42.648;23.384;2023-04-26T02:56:43;93567.06;;;7.13;100.00
56052;BME280;41919;42.648;23.384;2023-04-26T02:59:08;93574.25;;;7.11;100.00
56052;BME280;41919;42.648;23.384;2023-04-26T03:01:33;93501.09;;;6.68;100.00
56052;BME280;41919;42.648;23.384;2023-04-26T03:03:59;93565.47;;;7.12;100.00
56052;BME280;41919;42.648;23.384;2023-04-26T03:06:25;93538.13;;;6.96;100.00
56052;BME280;41919;42.648;23.384;2023-04-26T03:08:50;93593.56;;;7.28;100.00
56052;BME280;41919;42.648;23.384;2023-04-26T03:11:15;93517.00;;;6.85;100.00
56052;BME280;41919;42.648;23.384;2023-04-26T03:13:41;93569.97;;;7.30;100.00
56052;BME280;41919;42.648;23.384;2023-04-26T03:16:06;93584.06;;;7.54;100.00
56052;BME280;41919;42.648;23.384;2023-04-26T03:18:32;93465.78;;;6.99;100.00
56052;BME280;41919;42.648;23.384;2023-04-26T03:20:57;93581.19;;;7.94;100.00
56052;BME280;41919;42.648;23.384;2023-04-26T03:23:23;93561.31;;;8.06;100.00
56052;BME280;41919;42.648;23.384;2023-04-26T03:25:50;93537.31;;;8.04;100.00
56052;BME280;41919;42.648;23.384;2023-04-26T03:28:16;93567.66;;;8.35;100.00
56052;BME280;41919;42.648;23.384;2023-04-26T03:30:41;93383.44;;;7.06;100.00
56052;BME280;41919;42.648;23.384;2023-04-26T03:33:07;93574.84;;;8.15;100.00
56052;BME280;41919;42.648;23.384;2023-04-26T03:35:32;93598.25;;;8.15;100.00
56052;BME280;41919;42.648;23.384;2023-04-26T03:37:57;93586.69;;;8.11;100.00
56052;BME280;41919;42.648;23.384;2023-04-26T03:40:23;93578.75;;;8.31;100.00
56052;BME280;41919;42.648;23.384;2023-04-26T03:42:48;93537.03;;;8.12;100.00
56052;BME280;41919;42.648;23.384;2023-04-26T03:45:14;93553.31;;;8.08;100.00
56052;BME280;41919;42.648;23.384;2023-04-26T03:47:39;93529.72;;;8.02;100.00
56052;BME280;41919;42.648;23.384;2023-04-26T03:50:07;93568.31;;;8.56;100.00
56052;BME280;41919;42.648;23.384;2023-04-26T03:52:32;93571.75;;;8.75;100.00
56052;BME280;41919;42.648;23.384;2023-04-26T03:54:58;93569.59;;;8.90;100.00
56052;BME280;41919;42.648;23.384;2023-04-26T03:57:23;93592.44;;;9.25;100.00
56052;BME280;41919;42.648;23.384;2023-04-26T03:59:48;93589.97;;;9.30;100.00
56052;BME280;41919;42.648;23.384;2023-04-26T04:02:14;93578.03;;;9.53;100.00
56052;BME280;41919;42.648;23.384;2023-04-26T04:04:39;93524.66;;;9.55;100.00
56052;BME280;41919;42.648;23.384;2023-04-26T04:07:05;93594.69;;;10.12;100.00
56052;BME280;41919;42.648;23.384;2023-04-26T04:09:30;93572.66;;;10.08;100.00
56052;BME280;41919;42.648;23.384;2023-04-26T04:11:56;93602.00;;;10.22;100.00
56052;BME280;41919;42.648;23.384;2023-04-26T04:14:21;93550.84;;;10.02;100.00
56052;BME280;41919;42.648;23.384;2023-04-26T04:16:47;93583.56;;;10.17;100.00
56052;BME280;41919;42.648;23.384;2023-04-26T04:19:12;93563.78;;;9.86;100.00
56052;BME280;41919;42.648;23.384;2023-04-26T04:21:38;93612.72;;;10.44;100.00
56052;BME280;41919;42.648;23.384;2023-04-26T04:24:05;93615.56;;;10.54;100.00
56052;BME280;41919;42.648;23.384;2023-04-26T04:26:30;93618.06;;;10.73;100.00
56052;BME280;41919;42.648;23.384;2023-04-26T04:28:55;93620.09;;;10.83;100.00
56052;BME280;41919;42.648;23.384;2023-04-26T04:31:21;93620.66;;;10.96;100.00
56052;BME280;41919;42.648;23.384;2023-04-26T04:33:47;93627.94;;;11.18;100.00
56052;BME280;41919;42.648;23.384;2023-04-26T04:36:13;93577.16;;;10.90;100.00
56052;BME280;41919;42.648;23.384;2023-04-26T04:38:41;93560.78;;;10.83;100.00
56052;BME280;41919;42.648;23.384;2023-04-26T04:41:06;93628.56;;;11.37;100.00
56052;BME280;41919;42.648;23.384;2023-04-26T04:43:32;93640.19;;;11.41;100.00
56052;BME280;41919;42.648;23.384;2023-04-26T04:45:58;93572.72;;;11.03;100.00
56052;BME280;41919;42.648;23.384;2023-04-26T04:48:24;93565.53;;;11.10;100.00
56052;BME280;41919;42.648;23.384;2023-04-26T04:50:49;93600.34;;;11.51;100.00
56052;BME280;41919;42.648;23.384;2023-04-26T04:53:15;93620.13;;;11.58;100.00
56052;BME280;41919;42.648;23.384;2023-04-26T04:55:40;93608.72;;;11.24;100.00
56052;BME280;41919;42.648;23.384;2023-04-26T04:58:05;93557.59;;;11.05;100.00
56052;BME280;41919;42.648;23.384;2023-04-26T05:00:31;93611.66;;;11.68;100.00
56052;BME280;41919;42.648;23.384;2023-04-26T05:02:56;93615.47;;;11.89;98.52
56052;BME280;41919;42.648;23.384;2023-04-26T05:05:22;93577.41;;;11.87;96.21
56052;BME280;41919;42.648;23.384;2023-04-26T05:07:48;93622.38;;;12.41;95.40
56052;BME280;41919;42.648;23.384;2023-04-26T05:10:13;93577.09;;;12.29;93.05
56052;BME280;41919;42.648;23.384;2023-04-26T05:12:39;93636.97;;;12.71;91.95
56052;BME280;41919;42.648;23.384;2023-04-26T05:15:05;93641.84;;;12.45;91.15
56052;BME280;41919;42.648;23.384;2023-04-26T05:17:32;93591.94;;;12.06;91.22
56052;BME280;41919;42.648;23.384;2023-04-26T05:19:57;93638.53;;;12.21;94.11
56052;BME280;41919;42.648;23.384;2023-04-26T05:22:23;93607.41;;;11.91;95.59
56052;BME280;41919;42.648;23.384;2023-04-26T05:24:48;93600.75;;;11.60;95.43
56052;BME280;41919;42.648;23.384;2023-04-26T05:27:14;93582.75;;;11.34;97.25
56052;BME280;41919;42.648;23.384;2023-04-26T05:29:40;93642.97;;;11.63;97.43
56052;BME280;41919;42.648;23.384;2023-04-26T05:32:06;93636.66;;;11.76;96.85
56052;BME280;41919;42.648;23.384;2023-04-26T05:34:31;93587.53;;;11.66;97.33
56052;BME280;41919;42.648;23.384;2023-04-26T05:36:56;93582.09;;;11.68;95.06
56052;BME280;41919;42.648;23.384;2023-04-26T05:39:22;93648.09;;;12.44;95.18
56052;BME280;41919;42.648;23.384;2023-04-26T05:41:47;93629.91;;;12.88;92.60
56052;BME280;41919;42.648;23.384;2023-04-26T05:44:13;93596.13;;;13.53;100.00
56052;BME280;41919;42.648;23.384;2023-04-26T05:46:39;93592.81;;;14.12;91.03
56052;BME280;41919;42.648;23.384;2023-04-26T05:49:05;93633.38;;;14.81;78.72
56052;BME280;41919;42.648;23.384;2023-04-26T05:51:30;93638.00;;;15.06;76.39
56052;BME280;41919;42.648;23.384;2023-04-26T05:53:56;93647.66;;;15.33;75.66
56052;BME280;41919;42.648;23.384;2023-04-26T05:56:22;93652.34;;;15.25;74.83
56052;BME280;41919;42.648;23.384;2023-04-26T05:58:48;93652.84;;;15.22;74.87
56052;BME280;41919;42.648;23.384;2023-04-26T06:01:14;93602.28;;;15.20;74.03
56052;BME280;41919;42.648;23.384;2023-04-26T06:03:39;93626.94;;;15.57;71.17
56052;BME280;41919;42.648;23.384;2023-04-26T06:06:05;93614.13;;;15.71;70.25
56052;BME280;41919;42.648;23.384;2023-04-26T06:08:32;93639.78;;;15.96;68.60
56052;BME280;41919;42.648;23.384;2023-04-26T06:10:57;93597.16;;;15.46;69.07
56052;BME280;41919;42.648;23.384;2023-04-26T06:13:23;93595.19;;;15.74;67.16
56052;BME280;41919;42.648;23.384;2023-04-26T06:15:48;93594.66;;;15.77;66.47
56052;BME280;41919;42.648;23.384;2023-04-26T06:18:13;93575.72;;;15.85;65.95
56052;BME280;41919;42.648;23.384;2023-04-26T06:20:39;93650.16;;;16.43;65.73
56052;BME280;41919;42.648;23.384;2023-04-26T06:23:05;93642.28;;;16.59;65.01
56052;BME280;41919;42.648;23.384;2023-04-26T06:25:31;93631.97;;;16.62;64.47
56052;BME280;41919;42.648;23.384;2023-04-26T06:27:56;93550.72;;;16.49;63.74
56052;BME280;41919;42.648;23.384;2023-04-26T06:30:22;93635.03;;;17.52;61.69
56052;BME280;41919;42.648;23.384;2023-04-26T06:32:48;93647.28;;;18.08;60.83
56052;BME280;41919;42.648;23.384;2023-04-26T06:35:14;93645.97;;;18.05;60.16
56052;BME280;41919;42.648;23.384;2023-04-26T06:37:39;93623.53;;;17.97;61.42
56052;BME280;41919;42.648;23.384;2023-04-26T06:40:06;93593.03;;;17.55;60.40
56052;BME280;41919;42.648;23.384;2023-04-26T06:42:31;93633.28;;;18.02;61.27
56052;BME280;41919;42.648;23.384;2023-04-26T06:44:57;93625.16;;;17.83;61.05
56052;BME280;41919;42.648;23.384;2023-04-26T06:47:22;93630.50;;;17.68;61.23
56052;BME280;41919;42.648;23.384;2023-04-26T06:49:47;93629.09;;;16.95;60.80
56052;BME280;41919;42.648;23.384;2023-04-26T06:52:13;93644.34;;;16.36;64.02
56052;BME280;41919;42.648;23.384;2023-04-26T06:54:38;93644.81;;;16.13;64.47
56052;BME280;41919;42.648;23.384;2023-04-26T06:57:04;93587.31;;;15.26;61.56
56052;BME280;41919;42.648;23.384;2023-04-26T06:59:29;93621.69;;;15.09;60.71
56052;BME280;41919;42.648;23.384;2023-04-26T07:01:54;93607.28;;;14.74;62.62
56052;BME280;41919;42.648;23.384;2023-04-26T07:04:20;93601.34;;;15.37;60.99
56052;BME280;41919;42.648;23.384;2023-04-26T07:06:45;93655.50;;;16.90;57.79
56052;BME280;41919;42.648;23.384;2023-04-26T07:09:11;93600.91;;;17.71;50.71
56052;BME280;41919;42.648;23.384;2023-04-26T07:11:37;93636.81;;;19.06;43.79
56052;BME280;41919;42.648;23.384;2023-04-26T07:14:04;93640.69;;;19.72;41.80
56052;BME280;41919;42.648;23.384;2023-04-26T07:16:29;93651.03;;;20.35;40.68
56052;BME280;41919;42.648;23.384;2023-04-26T07:18:55;93646.47;;;20.60;38.31
56052;BME280;41919;42.648;23.384;2023-04-26T07:21:23;93609.63;;;20.53;38.46
56052;BME280;41919;42.648;23.384;2023-04-26T07:23:53;93654.22;;;21.08;37.49
56052;BME280;41919;42.648;23.384;2023-04-26T07:26:18;93647.91;;;21.04;36.05
56052;BME280;41919;42.648;23.384;2023-04-26T07:28:44;93631.84;;;20.95;37.21
56052;BME280;41919;42.648;23.384;2023-04-26T07:31:09;93651.69;;;21.78;36.65
56052;BME280;41919;42.648;23.384;2023-04-26T07:33:35;93640.00;;;22.43;34.63
56052;BME280;41919;42.648;23.384;2023-04-26T07:36:00;93541.75;;;21.13;34.19
56052;BME280;41919;42.648;23.384;2023-04-26T07:38:26;93651.03;;;21.39;33.99
56052;BME280;41919;42.648;23.384;2023-04-26T07:40:51;93662.38;;;20.98;37.02
56052;BME280;41919;42.648;23.384;2023-04-26T07:43:18;93655.28;;;21.40;35.86
56052;BME280;41919;42.648;23.384;2023-04-26T07:45:43;93603.34;;;20.49;35.98
56052;BME280;41919;42.648;23.384;2023-04-26T07:48:09;93597.09;;;19.35;38.15
56052;BME280;41919;42.648;23.384;2023-04-26T07:50:34;93621.50;;;19.32;39.32
56052;BME280;41919;42.648;23.384;2023-04-26T07:53:00;93665.38;;;19.91;37.48
56052;BME280;41919;42.648;23.384;2023-04-26T07:55:26;93653.91;;;19.96;37.53
56052;BME280;41919;42.648;23.384;2023-04-26T07:57:51;93667.03;;;19.87;37.80
56052;BME280;41919;42.648;23.384;2023-04-26T08:00:17;93670.81;;;19.28;38.88
56052;BME280;41919;42.648;23.384;2023-04-26T08:02:43;93621.06;;;18.56;39.71
56052;BME280;41919;42.648;23.384;2023-04-26T08:05:10;93607.91;;;18.46;40.05
56052;BME280;41919;42.648;23.384;2023-04-26T08:07:36;93619.84;;;18.77;38.59
56052;BME280;41919;42.648;23.384;2023-04-26T08:10:01;93612.53;;;18.64;38.28
56052;BME280;41919;42.648;23.384;2023-04-26T08:12:27;93648.94;;;19.12;38.56
56052;BME280;41919;42.648;23.384;2023-04-26T08:14:53;93674.22;;;19.57;38.02
56052;BME280;41919;42.648;23.384;2023-04-26T08:17:18;93595.84;;;19.27;38.22
56052;BME280;41919;42.648;23.384;2023-04-26T08:19:43;93607.78;;;19.25;38.08
56052;BME280;41919;42.648;23.384;2023-04-26T08:22:09;93654.53;;;19.10;37.60
56052;BME280;41919;42.648;23.384;2023-04-26T08:24:34;93604.81;;;18.33;38.33
56052;BME280;41919;42.648;23.384;2023-04-26T08:27:00;93631.47;;;17.97;39.88
56052;BME280;41919;42.648;23.384;2023-04-26T08:29:26;93620.03;;;17.47;41.48
56052;BME280;41919;42.648;23.384;2023-04-26T08:31:52;93660.88;;;17.86;41.91
56052;BME280;41919;42.648;23.384;2023-04-26T08:34:17;93615.25;;;17.44;41.24
56052;BME280;41919;42.648;23.384;2023-04-26T08:36:43;93655.13;;;17.42;42.42
56052;BME280;41919;42.648;23.384;2023-04-26T08:39:09;93607.69;;;17.12;43.08
56052;BME280;41919;42.648;23.384;2023-04-26T08:41:44;93603.22;;;17.02;42.70
56052;BME280;41919;42.648;23.384;2023-04-26T08:44:10;93669.72;;;17.09;43.55
56052;BME280;41919;42.648;23.384;2023-04-26T08:51:51;93676.28;;;16.81;43.60
56052;BME280;41919;42.648;23.384;2023-04-26T08:54:18;93632.25;;;16.61;43.13
56052;BME280;41919;42.648;23.384;2023-04-26T08:56:45;93675.78;;;17.20;43.65
56052;BME280;41919;42.648;23.384;2023-04-26T08:59:11;93666.28;;;17.19;44.39
56052;BME280;41919;42.648;23.384;2023-04-26T09:01:42;93624.31;;;17.12;43.02
56052;BME280;41919;42.648;23.384;2023-04-26T09:04:08;93678.41;;;17.20;43.35
56052;BME280;41919;42.648;23.384;2023-04-26T09:06:34;93667.31;;;17.18;43.39
56052;BME280;41919;42.648;23.384;2023-04-26T09:09:02;93644.91;;;17.15;43.69
56052;BME280;41919;42.648;23.384;2023-04-26T09:11:51;93679.44;;;17.44;42.47
56052;BME280;41919;42.648;23.384;2023-04-26T09:14:16;93685.72;;;17.74;42.24
56052;BME280;41919;42.648;23.384;2023-04-26T09:16:42;93668.03;;;17.59;41.67
56052;BME280;41919;42.648;23.384;2023-04-26T09:19:07;93641.47;;;17.04;42.31
56052;BME280;41919;42.648;23.384;2023-04-26T09:21:35;93628.31;;;16.99;43.47
56052;BME280;41919;42.648;23.384;2023-04-26T09:24:05;93691.34;;;17.32;42.54
56052;BME280;41919;42.648;23.384;2023-04-26T09:26:30;93658.84;;;17.31;41.77
56052;BME280;41919;42.648;23.384;2023-04-26T09:29:15;93690.47;;;17.62;41.10
56052;BME280;41919;42.648;23.384;2023-04-26T09:31:46;93633.59;;;16.99;41.61
56052;BME280;41919;42.648;23.384;2023-04-26T09:34:13;93635.41;;;17.04;42.14
56052;BME280;41919;42.648;23.384;2023-04-26T09:36:53;93667.84;;;17.20;43.03
56052;BME280;41919;42.648;23.384;2023-04-26T09:39:36;93682.66;;;17.26;42.11
56052;BME280;41919;42.648;23.384;2023-04-26T09:42:06;93690.84;;;16.89;42.81
56052;BME280;41919;42.648;23.384;2023-04-26T09:44:32;93625.63;;;16.58;42.68
56052;BME280;41919;42.648;23.384;2023-04-26T09:47:08;93684.72;;;16.78;43.92
56052;BME280;41919;42.648;23.384;2023-04-26T09:52:11;93680.28;;;16.94;42.74
56052;BME280;41919;42.648;23.384;2023-04-26T09:54:46;93674.75;;;17.05;42.54
56052;BME280;41919;42.648;23.384;2023-04-26T09:57:15;93611.41;;;16.59;42.60
56052;BME280;41919;42.648;23.384;2023-04-26T09:59:49;93674.97;;;17.14;42.54
56052;BME280;41919;42.648;23.384;2023-04-26T10:02:20;93671.31;;;17.05;41.56
56052;BME280;41919;42.648;23.384;2023-04-26T10:04:48;93612.75;;;16.88;41.48
56052;BME280;41919;42.648;23.384;2023-04-26T10:07:15;93608.00;;;16.84;42.19
56052;BME280;41919;42.648;23.384;2023-04-26T10:09:42;93675.50;;;17.21;41.75
56052;BME280;41919;42.648;23.384;2023-04-26T10:12:13;93666.53;;;17.22;41.09
56052;BME280;41919;42.648;23.384;2023-04-26T10:14:39;93659.91;;;17.35;40.80
56052;BME280;41919;42.648;23.384;2023-04-26T10:17:05;93608.72;;;17.21;40.24
56052;BME280;41919;42.648;23.384;2023-04-26T10:19:33;93616.91;;;17.14;40.49
56052;BME280;41919;42.648;23.384;2023-04-26T10:22:03;93659.66;;;17.27;39.86
56052;BME280;41919;42.648;23.384;2023-04-26T10:24:29;93644.38;;;17.18;40.70
56052;BME280;41919;42.648;23.384;2023-04-26T10:26:55;93604.25;;;16.75;41.32
56052;BME280;41919;42.648;23.384;2023-04-26T10:29:24;93612.19;;;17.01;40.51
56052;BME280;41919;42.648;23.384;2023-04-26T10:32:06;93664.41;;;17.40;40.63
56052;BME280;41919;42.648;23.384;2023-04-26T10:34:34;93657.25;;;17.46;40.46
56052;BME280;41919;42.648;23.384;2023-04-26T10:37:15;93654.88;;;17.44;40.03
56052;BME280;41919;42.648;23.384;2023-04-26T10:39:43;93662.84;;;16.77;39.34
56052;BME280;41919;42.648;23.384;2023-04-26T10:42:20;93654.66;;;16.53;39.86
56052;BME280;41919;42.648;23.384;2023-04-26T10:44:50;93638.25;;;16.20;40.79
56052;BME280;41919;42.648;23.384;2023-04-26T10:49:50;93647.69;;;15.96;41.46
56052;BME280;41919;42.648;23.384;2023-04-26T10:52:19;93660.34;;;16.04;41.42
56052;BME280;41919;42.648;23.384;2023-04-26T10:54:57;93632.28;;;15.67;42.32
56052;BME280;41919;42.648;23.384;2023-04-26T10:57:49;93656.28;;;15.76;41.75
56052;BME280;41919;42.648;23.384;2023-04-26T11:00:17;93604.00;;;15.42;41.73
56052;BME280;41919;42.648;23.384;2023-04-26T11:02:46;93632.22;;;15.57;41.20
56052;BME280;41919;42.648;23.384;2023-04-26T11:10:39;93659.91;;;15.64;41.03
56052;BME280;41919;42.648;23.384;2023-04-26T11:13:05;93619.78;;;15.42;41.89
56052;BME280;41919;42.648;23.384;2023-04-26T11:15:31;93647.91;;;15.84;41.13
56052;BME280;41919;42.648;23.384;2023-04-26T11:17:57;93640.78;;;15.84;40.61
56052;BME280;41919;42.648;23.384;2023-04-26T11:20:28;93647.94;;;15.94;41.09
56052;BME280;41919;42.648;23.384;2023-04-26T11:22:53;93647.69;;;15.96;40.24
56052;BME280;41919;42.648;23.384;2023-04-26T11:25:19;93663.78;;;16.04;40.02
56052;BME280;41919;42.648;23.384;2023-04-26T11:27:44;93644.97;;;15.75;38.69
56052;BME280;41919;42.648;23.384;2023-04-26T11:30:10;93588.19;;;15.42;40.30
56052;BME280;41919;42.648;23.384;2023-04-26T11:32:36;93630.19;;;15.69;39.22
56052;BME280;41919;42.648;23.384;2023-04-26T11:35:02;93637.63;;;15.87;40.34
56052;BME280;41919;42.648;23.384;2023-04-26T11:37:28;93622.16;;;16.12;40.15
56052;BME280;41919;42.648;23.384;2023-04-26T11:39:56;93656.47;;;16.37;40.82
56052;BME280;41919;42.648;23.384;2023-04-26T11:42:24;93612.16;;;16.24;38.82
56052;BME280;41919;42.648;23.384;2023-04-26T11:44:50;93587.56;;;15.87;38.28
56052;BME280;41919;42.648;23.384;2023-04-26T11:47:17;93593.69;;;16.08;38.23
56052;BME280;41919;42.648;23.384;2023-04-26T11:49:43;93662.31;;;16.50;39.04
56052;BME280;41919;42.648;23.384;2023-04-26T11:52:10;93663.34;;;16.64;38.94
56052;BME280;41919;42.648;23.384;2023-04-26T11:54:36;93586.06;;;16.22;38.38
56052;BME280;41919;42.648;23.384;2023-04-26T11:57:15;93618.00;;;16.67;38.04
56052;BME280;41919;42.648;23.384;2023-04-26T11:59:41;93652.84;;;16.90;37.69
56052;BME280;41919;42.648;23.384;2023-04-26T12:02:08;93652.84;;;16.95;37.31
56052;BME280;41919;42.648;23.384;2023-04-26T12:04:34;93562.34;;;16.58;37.22
56052;BME280;41919;42.648;23.384;2023-04-26T12:06:59;93612.19;;;16.80;37.52
56052;BME280;41919;42.648;23.384;2023-04-26T12:09:26;93637.25;;;17.19;37.28
56052;BME280;41919;42.648;23.384;2023-04-26T12:11:56;93568.91;;;17.02;37.31
56052;BME280;41919;42.648;23.384;2023-04-26T12:14:32;93562.59;;;16.93;36.52
56052;BME280;41919;42.648;23.384;2023-04-26T12:17:02;93635.88;;;17.42;35.65
56052;BME280;41919;42.648;23.384;2023-04-26T12:19:38;93628.50;;;17.34;36.21
56052;BME280;41919;42.648;23.384;2023-04-26T12:22:05;93586.34;;;16.82;36.71
56052;BME280;41919;42.648;23.384;2023-04-26T12:24:32;93566.03;;;16.57;37.75
56052;BME280;41919;42.648;23.384;2023-04-26T12:27:00;93567.09;;;16.36;37.33
56052;BME280;41919;42.648;23.384;2023-04-26T12:29:29;93573.69;;;16.38;38.22
56052;BME280;41919;42.648;23.384;2023-04-26T12:31:56;93629.38;;;16.88;38.21
56052;BME280;41919;42.648;23.384;2023-04-26T12:34:22;93604.81;;;16.57;37.42
56052;BME280;41919;42.648;23.384;2023-04-26T12:36:48;93550.75;;;16.13;37.38
56052;BME280;41919;42.648;23.384;2023-04-26T12:39:13;93628.81;;;16.50;38.07
56052;BME280;41919;42.648;23.384;2023-04-26T12:41:43;93558.34;;;16.04;38.17
56052;BME280;41919;42.648;23.384;2023-04-26T12:44:09;93613.25;;;16.43;38.33
56052;BME280;41919;42.648;23.384;2023-04-26T12:46:35;93563.63;;;16.04;38.36
56052;BME280;41919;42.648;23.384;2023-04-26T12:49:01;93626.69;;;16.37;37.70
56052;BME280;41919;42.648;23.384;2023-04-26T12:51:27;93602.41;;;16.19;38.63
56052;BME280;41919;42.648;23.384;2023-04-26T12:53:52;93602.38;;;16.14;38.65
56052;BME280;41919;42.648;23.384;2023-04-26T12:56:18;93562.31;;;15.92;38.49
56052;BME280;41919;42.648;23.384;2023-04-26T12:58:43;93573.63;;;15.87;38.08
56052;BME280;41919;42.648;23.384;2023-04-26T13:01:10;93580.72;;;15.86;38.96
56052;BME280;41919;42.648;23.384;2023-04-26T13:03:36;93614.53;;;16.15;39.24